Time;durP1;ratioP1;P1;durP2;ratioP2;P2;SDS_P1;SDS_P2;PMS_P1;PMS_P2;Temp;Humidity;BMP_temperature;BMP_pressure;BME280_temperature;BME280_humidity;BME280_pressure;Samples;Min_cycle;Max_cycle;Signal;HPM_P1;HPM_P2
2023/06/26 00:01:05;;;;;;;10.57;6.70;;;22.50;97.30;;;;;;5003672;28;20810;-80
2023/06/26 00:03:31;;;;;;;10.93;6.47;;;22.50;97.40;;;;;;4985359;28;20052;-78
2023/06/26 00:06:00;;;;;;;7.88;6.25;;;22.50;97.40;;;;;;5001457;28;20050;-79
2023/06/26 00:08:26;;;;;;;9.23;6.05;;;22.50;97.40;;;;;;5000413;28;20434;-80
2023/06/26 00:10:53;;;;;;;8.57;6.60;;;22.50;97.40;;;;;;4983070;28;20089;-79
2023/06/26 00:13:18;;;;;;;11.02;6.47;;;22.50;97.40;;;;;;4985735;28;20056;-80
2023/06/26 00:15:44;;;;;;;12.23;6.97;;;22.50;97.50;;;;;;4985760;28;20042;-80
2023/06/26 00:18:10;;;;;;;11.65;6.25;;;22.50;97.50;;;;;;4983579;28;20482;-79
2023/06/26 00:20:36;;;;;;;9.50;7.07;;;22.50;97.50;;;;;;4982601;28;20034;-79
2023/06/26 00:23:07;;;;;;;8.90;6.18;;;22.50;97.50;;;;;;5000037;28;20486;-79
2023/06/26 00:25:33;;;;;;;6.72;6.03;;;22.40;97.60;;;;;;5003512;28;20037;-80
2023/06/26 00:27:59;;;;;;;8.73;6.13;;;22.40;97.60;;;;;;5003019;28;20104;-80
2023/06/26 00:30:24;;;;;;;8.55;5.80;;;22.40;97.60;;;;;;5000532;28;20494;-80
2023/06/26 00:32:51;;;;;;;9.18;6.88;;;22.40;97.70;;;;;;4982301;28;20145;-79
2023/06/26 00:35:16;;;;;;;7.38;5.93;;;22.40;97.70;;;;;;4982859;28;20050;-80
2023/06/26 00:37:42;;;;;;;7.82;6.30;;;22.30;97.70;;;;;;4985155;28;20375;-80
2023/06/26 00:40:08;;;;;;;10.23;6.43;;;22.30;97.70;;;;;;4985272;28;20084;-80
2023/06/26 00:42:34;;;;;;;9.25;6.68;;;22.30;97.70;;;;;;4982921;28;20054;-80
2023/06/26 00:45:00;;;;;;;9.25;6.72;;;22.30;97.80;;;;;;4981937;28;20112;-80
2023/06/26 00:47:27;;;;;;;7.80;6.47;;;22.30;97.90;;;;;;4982282;28;20126;-80
2023/06/26 00:49:54;;;;;;;8.68;6.68;;;22.30;98.00;;;;;;5007690;28;20053;-79
2023/06/26 00:52:20;;;;;;;9.88;6.75;;;22.20;97.90;;;;;;4999634;28;20041;-81
2023/06/26 00:54:46;;;;;;;10.00;6.30;;;22.20;97.90;;;;;;4983682;28;20054;-80
2023/06/26 00:57:12;;;;;;;11.45;6.72;;;22.20;97.90;;;;;;4985089;28;20057;-80
2023/06/26 00:59:38;;;;;;;10.30;6.70;;;22.20;97.90;;;;;;4984839;28;20413;-80
2023/06/26 01:02:04;;;;;;;9.93;7.20;;;22.20;97.90;;;;;;4981738;28;20406;-79
2023/06/26 01:04:32;;;;;;;11.10;7.78;;;22.20;98.00;;;;;;4999456;28;20393;-80
2023/06/26 01:06:59;;;;;;;9.05;7.35;;;22.20;98.00;;;;;;4983563;28;20050;-80
2023/06/26 01:09:25;;;;;;;13.00;7.30;;;22.20;98.00;;;;;;5002150;28;20099;-80
2023/06/26 01:11:51;;;;;;;10.77;7.85;;;22.20;98.00;;;;;;5002122;28;20053;-79
2023/06/26 01:14:17;;;;;;;8.90;7.13;;;22.20;98.00;;;;;;4981677;28;20065;-79
2023/06/26 01:16:47;;;;;;;9.48;7.43;;;22.20;98.10;;;;;;4999104;28;20053;-80
2023/06/26 01:19:25;;;;;;;8.95;7.32;;;22.20;98.10;;;;;;5001685;28;20079;-79
2023/06/26 01:21:57;;;;;;;11.00;7.55;;;22.10;98.30;;;;;;5002306;28;20433;-79
2023/06/26 01:24:27;;;;;;;13.70;8.27;;;22.10;98.20;;;;;;4999306;28;20554;-79
2023/06/26 01:26:53;;;;;;;8.95;7.38;;;22.20;98.30;;;;;;4981601;28;20100;-80
2023/06/26 01:29:20;;;;;;;8.63;7.55;;;22.10;98.30;;;;;;4983259;28;20057;-80
2023/06/26 01:31:49;;;;;;;11.40;7.70;;;22.00;98.30;;;;;;5002291;28;20049;-82
2023/06/26 01:34:17;;;;;;;12.10;8.05;;;22.00;98.40;;;;;;5001410;28;20100;-80
2023/06/26 01:36:44;;;;;;;12.20;7.82;;;22.00;98.30;;;;;;4981836;28;20125;-80
2023/06/26 01:39:09;;;;;;;11.43;7.75;;;22.00;98.40;;;;;;4981513;28;20478;-80
2023/06/26 01:41:36;;;;;;;8.55;7.60;;;22.00;98.40;;;;;;4984114;28;20082;-80
2023/06/26 01:44:02;;;;;;;12.27;8.52;;;22.00;98.50;;;;;;5002218;28;20074;-79
2023/06/26 01:46:38;;;;;;;9.75;7.85;;;21.90;98.50;;;;;;5001165;28;20041;-78
2023/06/26 01:49:23;;;;;;;11.52;8.20;;;21.90;98.70;;;;;;4998956;28;20050;-79
2023/06/26 01:52:00;;;;;;;10.25;8.65;;;21.90;99.20;;;;;;5001574;28;20092;-80
2023/06/26 01:54:32;;;;;;;10.48;9.00;;;21.80;98.90;;;;;;4984358;28;20046;-80
2023/06/26 01:56:58;;;;;;;8.75;7.82;;;21.80;98.90;;;;;;4998889;28;20050;-80
2023/06/26 01:59:28;;;;;;;11.02;8.65;;;21.80;98.90;;;;;;4981370;28;20078;-79
2023/06/26 02:01:54;;;;;;;12.48;8.40;;;21.80;99.00;;;;;;4967169;28;20399;-79
2023/06/26 02:04:20;;;;;;;12.90;8.90;;;21.70;99.10;;;;;;5002219;28;20048;-79
2023/06/26 02:06:45;;;;;;;10.02;8.77;;;21.70;99.20;;;;;;5001470;28;20050;-79
2023/06/26 02:09:11;;;;;;;16.05;9.48;;;21.60;99.20;;;;;;4981093;28;20046;-80
2023/06/26 02:11:37;;;;;;;11.38;8.50;;;21.70;99.40;;;;;;4998656;28;20038;-80
2023/06/26 02:14:02;;;;;;;11.32;8.77;;;21.60;99.30;;;;;;5000169;28;20050;-79
2023/06/26 02:16:29;;;;;;;10.02;8.10;;;21.60;99.30;;;;;;4984215;28;20121;-79
2023/06/26 02:18:54;;;;;;;10.82;9.00;;;21.60;99.40;;;;;;5001125;28;20050;-80
2023/06/26 02:21:20;;;;;;;12.25;8.88;;;21.60;99.50;;;;;;4998880;28;20050;-80
2023/06/26 02:23:46;;;;;;;10.45;9.13;;;21.50;99.50;;;;;;4981072;28;20050;-79
2023/06/26 02:26:11;;;;;;;11.57;9.05;;;21.50;99.50;;;;;;4999924;28;20498;-80
2023/06/26 02:28:37;;;;;;;13.27;9.40;;;21.50;99.60;;;;;;4987539;28;20319;-79
2023/06/26 02:31:02;;;;;;;10.82;8.68;;;21.50;99.60;;;;;;5005175;28;20046;-80
2023/06/26 02:33:28;;;;;;;12.32;9.20;;;21.40;99.70;;;;;;4984502;28;20061;-80
2023/06/26 02:35:54;;;;;;;11.45;9.52;;;21.40;99.70;;;;;;4990199;28;20042;-79
2023/06/26 02:38:19;;;;;;;20.13;10.20;;;21.40;99.90;;;;;;4986804;28;20088;-80
2023/06/26 02:40:45;;;;;;;13.23;10.45;;;21.40;99.90;;;;;;4988129;28;20061;-80
2023/06/26 02:43:10;;;;;;;12.25;9.65;;;21.30;99.90;;;;;;5005063;28;20407;-80
2023/06/26 02:45:36;;;;;;;15.35;9.68;;;21.30;99.90;;;;;;5002780;28;20041;-80
2023/06/26 02:48:02;;;;;;;12.18;9.73;;;21.30;99.90;;;;;;4984063;28;20046;-80
2023/06/26 02:50:27;;;;;;;12.07;9.95;;;21.30;99.90;;;;;;5002086;28;20141;-81
2023/06/26 02:52:53;;;;;;;11.35;9.48;;;21.30;99.90;;;;;;4983998;28;20042;-80
2023/06/26 02:55:20;;;;;;;11.75;9.45;;;21.30;99.90;;;;;;5000317;28;20046;-80
2023/06/26 02:57:45;;;;;;;11.40;9.95;;;21.30;99.90;;;;;;5003594;28;20049;-80
2023/06/26 03:00:12;;;;;;;14.35;9.45;;;21.20;99.90;;;;;;5001545;28;20085;-80
2023/06/26 03:02:37;;;;;;;13.27;9.98;;;21.20;99.90;;;;;;5001390;28;20078;-80
2023/06/26 03:05:04;;;;;;;16.15;9.48;;;21.20;99.90;;;;;;4986746;28;20461;-79
2023/06/26 03:07:29;;;;;;;12.60;10.63;;;21.10;99.90;;;;;;4970364;28;20088;-80
2023/06/26 03:09:55;;;;;;;12.50;10.80;;;21.10;99.90;;;;;;4985581;28;20089;-80
2023/06/26 03:12:21;;;;;;;16.48;12.25;;;21.10;99.90;;;;;;4984175;28;20066;-79
2023/06/26 03:14:46;;;;;;;12.80;11.48;;;21.00;99.90;;;;;;5001317;28;20085;-80
2023/06/26 03:17:12;;;;;;;16.90;11.85;;;21.00;99.90;;;;;;5004091;28;20100;-80
2023/06/26 03:19:38;;;;;;;13.95;11.45;;;21.00;99.90;;;;;;5004134;28;20054;-79
2023/06/26 03:22:03;;;;;;;13.15;11.35;;;21.00;99.90;;;;;;5003395;28;20033;-79
2023/06/26 03:24:29;;;;;;;17.13;12.05;;;20.90;99.90;;;;;;5001174;28;20030;-79
2023/06/26 03:26:55;;;;;;;16.25;11.65;;;20.90;99.90;;;;;;5000970;28;20397;-80
2023/06/26 03:29:20;;;;;;;14.27;11.77;;;20.90;99.90;;;;;;5003133;28;20049;-80
2023/06/26 03:31:46;;;;;;;15.15;11.32;;;20.80;99.90;;;;;;4986511;28;20045;-79
2023/06/26 03:34:12;;;;;;;13.50;11.27;;;20.80;99.90;;;;;;5003385;28;20096;-80
2023/06/26 03:36:38;;;;;;;13.57;11.30;;;20.80;99.90;;;;;;4987048;28;20100;-79
2023/06/26 03:39:04;;;;;;;12.27;10.52;;;20.90;99.90;;;;;;5003119;28;20050;-79
2023/06/26 03:41:29;;;;;;;14.15;10.77;;;20.80;99.90;;;;;;5002153;28;20058;-79
2023/06/26 03:43:56;;;;;;;12.57;10.73;;;20.80;99.90;;;;;;5000855;28;20058;-80
2023/06/26 03:46:22;;;;;;;12.38;10.52;;;20.90;99.90;;;;;;4983724;28;20093;-79
2023/06/26 03:48:48;;;;;;;12.27;10.93;;;20.90;99.90;;;;;;5003801;28;20074;-79
2023/06/26 03:51:14;;;;;;;14.75;10.93;;;20.90;99.90;;;;;;4985775;28;20046;-79
2023/06/26 03:53:40;;;;;;;13.05;11.05;;;20.90;99.90;;;;;;5001769;28;20038;-79
2023/06/26 03:56:06;;;;;;;14.65;11.65;;;20.80;99.90;;;;;;5001072;28;20038;-80
2023/06/26 03:58:31;;;;;;;11.80;10.60;;;20.90;99.90;;;;;;5000818;28;20034;-79
2023/06/26 04:00:57;;;;;;;11.95;10.63;;;20.90;99.90;;;;;;5003624;28;20038;-80
2023/06/26 04:03:23;;;;;;;13.68;11.20;;;20.80;99.90;;;;;;5003687;28;20042;-80
2023/06/26 04:05:49;;;;;;;14.07;11.05;;;20.80;99.90;;;;;;5002060;28;20053;-80
2023/06/26 04:08:15;;;;;;;21.63;11.80;;;20.80;99.90;;;;;;5000698;28;20038;-79
2023/06/26 04:10:40;;;;;;;15.80;11.43;;;20.80;99.90;;;;;;4982571;28;20054;-80
2023/06/26 04:13:06;;;;;;;14.02;11.38;;;20.80;99.90;;;;;;4985355;28;20039;-80
2023/06/26 04:15:32;;;;;;;13.30;10.48;;;20.80;99.90;;;;;;4985691;28;20042;-79
2023/06/26 04:17:57;;;;;;;16.23;11.27;;;20.80;99.90;;;;;;4984982;28;20050;-80
2023/06/26 04:20:23;;;;;;;13.38;10.05;;;20.80;99.90;;;;;;4982597;28;20402;-80
2023/06/26 04:22:49;;;;;;;13.32;10.23;;;20.80;99.90;;;;;;4982386;28;20505;-80
2023/06/26 04:25:14;;;;;;;12.60;10.38;;;20.90;99.90;;;;;;4968278;28;20138;-80
2023/06/26 04:27:40;;;;;;;13.57;9.45;;;20.90;99.90;;;;;;4985653;28;20041;-79
2023/06/26 04:30:06;;;;;;;16.60;9.38;;;21.00;99.90;;;;;;5002975;28;20042;-80
2023/06/26 04:32:32;;;;;;;13.60;7.95;;;21.00;99.90;;;;;;4982202;28;20149;-79
2023/06/26 04:34:57;;;;;;;13.07;8.63;;;21.00;99.90;;;;;;4999937;28;20141;-79
2023/06/26 04:37:24;;;;;;;11.82;8.18;;;21.00;99.90;;;;;;4967586;28;20137;-78
2023/06/26 04:39:50;;;;;;;13.90;8.07;;;21.10;99.90;;;;;;4985158;28;20053;-78
2023/06/26 04:42:16;;;;;;;16.85;8.60;;;21.10;99.90;;;;;;4981615;28;20058;-79
2023/06/26 04:44:42;;;;;;;17.30;8.52;;;21.10;99.90;;;;;;4978897;28;20466;-79
2023/06/26 04:47:08;;;;;;;12.18;7.88;;;21.10;99.90;;;;;;4980446;28;20129;-79
2023/06/26 04:49:34;;;;;;;16.23;7.78;;;21.10;99.90;;;;;;4981569;28;20035;-79
2023/06/26 04:52:00;;;;;;;16.20;8.20;;;21.10;99.90;;;;;;4981725;28;20101;-78
2023/06/26 04:54:26;;;;;;;15.18;8.13;;;21.00;99.90;;;;;;4981598;28;20046;-80
2023/06/26 04:56:51;;;;;;;12.88;8.70;;;21.10;99.90;;;;;;4978866;28;20126;-79
2023/06/26 04:59:17;;;;;;;22.30;9.15;;;21.00;99.90;;;;;;4980005;28;20117;-79
2023/06/26 05:01:47;;;;;;;17.88;8.77;;;21.00;99.90;;;;;;4980730;28;20039;-78
2023/06/26 05:04:14;;;;;;;18.30;10.05;;;20.90;99.90;;;;;;4983043;28;20061;-79
2023/06/26 05:06:40;;;;;;;16.58;10.15;;;20.80;99.90;;;;;;4982919;28;20061;-78
2023/06/26 05:09:06;;;;;;;16.08;9.35;;;20.80;99.90;;;;;;4979884;28;20130;-78
2023/06/26 05:11:31;;;;;;;18.50;9.10;;;20.70;99.90;;;;;;4978810;28;20119;-77
2023/06/26 05:13:57;;;;;;;17.13;9.73;;;20.80;99.90;;;;;;4981581;28;20047;-79
2023/06/26 05:16:22;;;;;;;20.90;9.25;;;20.70;99.90;;;;;;4981926;28;20097;-78
2023/06/26 05:18:48;;;;;;;28.02;9.55;;;20.70;99.90;;;;;;4982871;28;20105;-77
2023/06/26 05:21:15;;;;;;;18.70;9.82;;;20.60;99.90;;;;;;4978492;28;20465;-74
2023/06/26 05:23:44;;;;;;;18.15;8.75;;;20.60;99.90;;;;;;4978111;28;20151;-76
2023/06/26 05:26:10;;;;;;;15.80;7.93;;;20.50;99.90;;;;;;4980797;28;20051;-77
2023/06/26 05:28:37;;;;;;;17.70;7.15;;;20.40;99.90;;;;;;4982974;28;20049;-79
2023/06/26 05:31:04;;;;;;;17.60;7.35;;;20.40;99.90;;;;;;4982976;28;20050;-80
2023/06/26 05:33:33;;;;;;;16.67;7.03;;;20.40;99.90;;;;;;4979644;28;20054;-79
2023/06/26 05:35:59;;;;;;;18.52;7.55;;;20.40;99.90;;;;;;4978393;28;20454;-79
2023/06/26 05:38:26;;;;;;;17.95;6.70;;;20.40;99.90;;;;;;4981104;28;20105;-80
2023/06/26 05:40:51;;;;;;;14.50;6.45;;;20.30;99.90;;;;;;4983267;28;20046;-78
2023/06/26 05:43:20;;;;;;;11.52;5.63;;;20.30;99.90;;;;;;4984659;28;20056;-80
2023/06/26 05:45:48;;;;;;;14.00;5.72;;;20.30;99.90;;;;;;4998975;28;20111;-79
2023/06/26 05:48:14;;;;;;;17.23;5.97;;;20.20;99.90;;;;;;4998833;28;20078;-77
2023/06/26 05:50:41;;;;;;;16.20;4.95;;;20.20;99.90;;;;;;4983169;28;20085;-80
2023/06/26 05:53:08;;;;;;;14.45;4.78;;;20.10;99.90;;;;;;4951905;28;20049;-79
2023/06/26 05:55:34;;;;;;;12.52;3.95;;;20.10;99.90;;;;;;5001349;28;20164;-78
2023/06/26 05:58:01;;;;;;;14.40;4.07;;;20.00;99.90;;;;;;4998912;28;20105;-80
2023/06/26 06:00:27;;;;;;;11.60;4.15;;;20.00;99.90;;;;;;4981414;28;20117;-78
2023/06/26 06:02:54;;;;;;;18.77;4.32;;;20.00;99.90;;;;;;5003457;28;20038;-78
2023/06/26 06:05:21;;;;;;;16.55;4.82;;;19.90;99.90;;;;;;4982884;28;20050;-78
2023/06/26 06:07:46;;;;;;;18.77;5.13;;;19.90;99.90;;;;;;5003211;28;20052;-77
2023/06/26 06:10:12;;;;;;;18.02;4.55;;;20.00;99.90;;;;;;5005672;28;20513;-79
2023/06/26 06:12:38;;;;;;;12.68;4.22;;;20.10;99.90;;;;;;4988106;28;20049;-80
2023/06/26 06:15:05;;;;;;;16.92;3.97;;;20.10;99.90;;;;;;4985748;28;20050;-80
2023/06/26 06:17:31;;;;;;;13.43;3.83;;;20.20;99.90;;;;;;4984653;28;20478;-78
2023/06/26 06:19:57;;;;;;;17.45;4.13;;;20.20;99.90;;;;;;4985325;28;20050;-79
2023/06/26 06:22:22;;;;;;;18.20;4.03;;;20.20;99.90;;;;;;4988005;28;20052;-79
2023/06/26 06:24:51;;;;;;;16.40;4.15;;;20.30;99.90;;;;;;4987722;28;20054;-78
2023/06/26 06:27:17;;;;;;;15.52;3.03;;;20.40;99.90;;;;;;5003345;28;20037;-78
2023/06/26 06:29:43;;;;;;;17.58;4.20;;;20.50;99.90;;;;;;5002574;28;20395;-78
2023/06/26 06:32:08;;;;;;;15.63;3.45;;;20.50;99.90;;;;;;4985202;28;20082;-79
2023/06/26 06:34:34;;;;;;;12.77;3.88;;;20.60;99.90;;;;;;4987734;28;20383;-78
2023/06/26 06:36:59;;;;;;;14.63;3.58;;;20.70;99.90;;;;;;5005101;28;20533;-79
2023/06/26 06:39:25;;;;;;;16.35;3.40;;;20.80;99.90;;;;;;5003247;28;20501;-79
2023/06/26 06:41:51;;;;;;;12.32;2.92;;;21.00;99.90;;;;;;4984201;28;20058;-77
2023/06/26 06:44:17;;;;;;;15.23;3.10;;;21.10;99.90;;;;;;5002066;28;20061;-79
2023/06/26 06:46:43;;;;;;;11.77;2.90;;;21.10;99.90;;;;;;5001821;28;20049;-78
2023/06/26 06:49:09;;;;;;;8.70;2.10;;;21.20;99.90;;;;;;4984244;28;20054;-80
2023/06/26 06:51:34;;;;;;;12.82;2.80;;;21.30;99.90;;;;;;4992335;28;20049;-79
2023/06/26 06:54:00;;;;;;;10.15;2.53;;;21.40;99.90;;;;;;5001795;28;20375;-79
2023/06/26 06:56:26;;;;;;;11.82;2.75;;;21.50;99.90;;;;;;5001546;28;20050;-78
2023/06/26 06:58:52;;;;;;;12.18;2.83;;;21.70;99.90;;;;;;4986805;28;20558;-78
2023/06/26 07:01:18;;;;;;;14.43;2.80;;;21.80;99.90;;;;;;4987172;28;20058;-78
2023/06/26 07:03:43;;;;;;;6.80;2.70;;;21.90;99.90;;;;;;5003638;28;20050;-80
2023/06/26 07:06:09;;;;;;;6.90;2.00;;;22.00;99.90;;;;;;4983930;28;20078;-79
2023/06/26 07:08:35;;;;;;;7.80;1.92;;;22.20;99.90;;;;;;4975925;28;20125;-80
2023/06/26 07:11:01;;;;;;;6.72;1.98;;;22.20;99.90;;;;;;4986161;28;20061;-80
2023/06/26 07:13:27;;;;;;;6.25;1.83;;;22.40;99.90;;;;;;5004348;28;20057;-79
2023/06/26 07:15:52;;;;;;;7.57;1.83;;;22.50;99.90;;;;;;4986921;28;20057;-80
2023/06/26 07:18:18;;;;;;;13.23;1.98;;;22.60;99.90;;;;;;4983614;28;20509;-78
2023/06/26 07:20:43;;;;;;;9.07;2.45;;;22.60;99.90;;;;;;4983902;28;20164;-79
2023/06/26 07:23:10;;;;;;;10.10;1.80;;;22.90;99.90;;;;;;4985478;28;20112;-80
2023/06/26 07:25:36;;;;;;;10.38;2.13;;;22.90;99.90;;;;;;5007529;28;20478;-80
2023/06/26 07:28:02;;;;;;;6.75;1.80;;;23.00;99.90;;;;;;4983193;28;20081;-80
2023/06/26 07:30:27;;;;;;;9.05;2.30;;;23.10;99.90;;;;;;4986561;28;20080;-79
2023/06/26 07:32:53;;;;;;;8.40;1.80;;;23.10;99.90;;;;;;4986727;28;20038;-79
2023/06/26 07:35:19;;;;;;;8.40;1.98;;;23.10;99.90;;;;;;4985308;28;20050;-80
2023/06/26 07:37:45;;;;;;;6.65;1.70;;;23.30;99.90;;;;;;4983585;28;20049;-80
2023/06/26 07:40:11;;;;;;;6.60;1.80;;;23.20;99.90;;;;;;4983736;28;20445;-80
2023/06/26 07:42:36;;;;;;;8.77;1.65;;;23.30;99.90;;;;;;5003554;28;20038;-79
2023/06/26 07:45:09;;;;;;;9.98;2.00;;;23.50;99.90;;;;;;5004210;28;20046;-80
2023/06/26 07:47:36;;;;;;;6.53;1.60;;;23.60;99.90;;;;;;4984229;28;20053;-81
2023/06/26 07:50:03;;;;;;;6.30;1.25;;;23.30;99.90;;;;;;4983486;28;20371;-80
2023/06/26 07:52:30;;;;;;;7.60;2.10;;;23.10;99.90;;;;;;4983495;28;20060;-81
2023/06/26 07:54:56;;;;;;;9.10;1.40;;;23.00;99.90;;;;;;4986173;28;20041;-80
2023/06/26 07:57:21;;;;;;;6.97;1.58;;;23.20;99.90;;;;;;4986016;28;20049;-81
2023/06/26 07:59:47;;;;;;;7.38;1.67;;;23.00;99.90;;;;;;5001567;28;20045;-81
2023/06/26 08:02:12;;;;;;;7.60;1.60;;;23.00;99.90;;;;;;5000641;28;20050;-81
2023/06/26 08:04:38;;;;;;;5.32;1.48;;;22.80;99.90;;;;;;5000831;28;20104;-80
2023/06/26 08:07:04;;;;;;;8.10;1.80;;;23.00;99.90;;;;;;5003628;28;20444;-79
2023/06/26 08:09:31;;;;;;;4.68;1.30;;;22.90;99.90;;;;;;4985843;28;20038;-80
2023/06/26 08:11:57;;;;;;;6.22;1.58;;;22.80;99.90;;;;;;4984576;28;20133;-79
2023/06/26 08:14:23;;;;;;;3.33;1.55;;;22.80;99.90;;;;;;5000381;28;20085;-78
2023/06/26 08:16:49;;;;;;;8.27;1.70;;;22.80;99.90;;;;;;4982643;28;20497;-79
2023/06/26 08:19:15;;;;;;;5.38;1.52;;;22.90;99.90;;;;;;5003268;28;20042;-81
2023/06/26 08:21:45;;;;;;;9.50;1.58;;;23.10;99.90;;;;;;4985673;28;20045;-80
2023/06/26 08:24:13;;;;;;;4.75;1.50;;;23.00;99.90;;;;;;5000334;28;20145;-80
2023/06/26 08:26:39;;;;;;;11.85;2.28;;;23.20;99.90;;;;;;4982501;28;20050;-77
2023/06/26 08:29:07;;;;;;;5.80;1.60;;;23.00;99.90;;;;;;5000471;28;20057;-81
2023/06/26 08:31:37;;;;;;;6.88;1.42;;;22.90;99.90;;;;;;5003335;28;20061;-81
2023/06/26 08:34:04;;;;;;;6.53;1.25;;;22.70;99.90;;;;;;5003120;28;20726;-81
2023/06/26 08:36:30;;;;;;;9.30;1.63;;;22.80;99.90;;;;;;4982524;28;20038;-80
2023/06/26 08:38:55;;;;;;;9.70;1.90;;;22.40;99.90;;;;;;4999740;28;20441;-81
2023/06/26 08:41:21;;;;;;;6.30;2.08;;;22.40;99.90;;;;;;4983181;28;20177;-81
2023/06/26 08:43:47;;;;;;;6.40;1.70;;;22.20;99.90;;;;;;4985382;28;20136;-80
2023/06/26 08:46:14;;;;;;;8.98;2.00;;;22.30;99.90;;;;;;4985310;28;20058;-79
2023/06/26 08:48:43;;;;;;;4.30;1.80;;;22.30;99.90;;;;;;4982813;28;20101;-81
2023/06/26 08:51:11;;;;;;;7.25;1.63;;;22.50;99.90;;;;;;4999678;28;20045;-80
2023/06/26 08:53:58;;;;;;;6.63;1.73;;;22.50;99.90;;;;;;4983296;28;20053;-81
2023/06/26 08:56:50;;;;;;;22.95;2.83;;;22.40;99.90;;;;;;4968741;28;20084;-81
2023/06/26 08:59:16;;;;;;;6.10;1.67;;;22.10;99.90;;;;;;4967673;28;20058;-82
2023/06/26 09:01:42;;;;;;;6.13;2.25;;;22.20;99.90;;;;;;5000643;28;20050;-78
2023/06/26 09:04:08;;;;;;;5.45;1.50;;;22.50;99.90;;;;;;5006499;28;20046;-80
2023/06/26 09:06:34;;;;;;;5.97;1.52;;;22.80;99.90;;;;;;4981740;28;20046;-81
2023/06/26 09:09:00;;;;;;;14.02;1.67;;;23.10;99.90;;;;;;4984855;28;20050;-81
2023/06/26 09:11:25;;;;;;;4.50;1.83;;;23.40;99.90;;;;;;4984962;28;20042;-81
2023/06/26 09:13:52;;;;;;;5.80;1.70;;;23.00;99.90;;;;;;5001359;28;20076;-80
2023/06/26 09:16:17;;;;;;;4.88;1.45;;;22.90;99.90;;;;;;4999244;28;20049;-80
2023/06/26 09:18:45;;;;;;;4.43;1.50;;;23.00;99.90;;;;;;4981764;28;20050;-81
2023/06/26 09:21:11;;;;;;;4.15;1.58;;;23.50;99.90;;;;;;5001744;28;20046;-78
2023/06/26 09:23:39;;;;;;;9.40;2.25;;;23.60;99.90;;;;;;4985237;28;20046;-80
2023/06/26 09:26:06;;;;;;;7.07;1.67;;;23.40;99.90;;;;;;4983773;28;20049;-80
2023/06/26 09:28:35;;;;;;;4.38;1.55;;;23.10;99.90;;;;;;4999545;28;20038;-81
2023/06/26 09:31:05;;;;;;;6.03;1.60;;;23.00;99.90;;;;;;4981324;28;20049;-81
2023/06/26 09:33:38;;;;;;;8.93;1.90;;;22.80;99.90;;;;;;4981434;28;20050;-80
2023/06/26 09:36:20;;;;;;;6.68;1.92;;;22.70;99.90;;;;;;4999379;28;20078;-78
2023/06/26 09:38:46;;;;;;;7.13;2.75;;;22.30;99.90;;;;;;5003140;28;20050;-81
2023/06/26 09:41:11;;;;;;;7.78;2.10;;;22.30;99.90;;;;;;5003033;28;20077;-80
2023/06/26 09:43:49;;;;;;;5.85;2.15;;;22.50;99.90;;;;;;5003077;28;20046;-81
2023/06/26 09:46:28;;;;;;;6.00;2.38;;;22.80;99.90;;;;;;4985499;28;20104;-76
2023/06/26 09:49:08;;;;;;;5.50;2.17;;;22.60;99.90;;;;;;5003332;28;20529;-76
2023/06/26 09:51:34;;;;;;;9.50;2.55;;;23.10;99.90;;;;;;4994657;28;20104;-79
2023/06/26 09:54:01;;;;;;;8.35;2.45;;;23.30;99.90;;;;;;4985759;28;20046;-76
2023/06/26 09:56:28;;;;;;;8.02;1.92;;;23.50;99.90;;;;;;5002806;28;20049;-79
2023/06/26 09:58:59;;;;;;;9.52;2.10;;;23.30;99.90;;;;;;5003060;28;20038;-79
2023/06/26 10:01:25;;;;;;;7.55;2.35;;;23.40;99.90;;;;;;5002468;28;20129;-81
2023/06/26 10:03:51;;;;;;;7.95;2.22;;;23.50;99.90;;;;;;5005079;28;20042;-81
2023/06/26 10:06:21;;;;;;;6.93;1.83;;;23.60;99.90;;;;;;4988180;28;20042;-79
2023/06/26 10:08:48;;;;;;;8.82;1.88;;;23.40;99.60;;;;;;4987277;28;20049;-82
2023/06/26 10:11:16;;;;;;;5.75;2.10;;;23.30;99.60;;;;;;4984942;28;20777;-80
2023/06/26 10:13:46;;;;;;;8.25;1.80;;;23.30;99.90;;;;;;4984986;28;20042;-80
2023/06/26 10:16:13;;;;;;;6.43;2.28;;;23.30;99.80;;;;;;4987732;28;20057;-80
2023/06/26 10:18:43;;;;;;;4.45;1.70;;;23.00;98.80;;;;;;5005722;28;20046;-80
2023/06/26 10:21:11;;;;;;;5.53;2.08;;;22.80;98.80;;;;;;5003040;28;20523;-80
2023/06/26 10:23:41;;;;;;;5.05;2.25;;;23.30;99.00;;;;;;4984703;28;20038;-81
2023/06/26 10:26:08;;;;;;;8.20;2.40;;;23.50;99.20;;;;;;5003472;28;20038;-81
2023/06/26 10:28:35;;;;;;;6.32;2.35;;;23.60;99.40;;;;;;4987988;28;20597;-81
2023/06/26 10:31:03;;;;;;;6.75;1.63;;;23.90;98.90;;;;;;5005297;28;20133;-81
2023/06/26 10:33:30;;;;;;;5.40;1.80;;;24.20;98.90;;;;;;5001978;28;20046;-80
2023/06/26 10:36:21;;;;;;;6.00;1.92;;;24.30;98.10;;;;;;4984543;28;20060;-81
2023/06/26 10:38:57;;;;;;;5.35;2.05;;;24.00;97.80;;;;;;5002060;28;20053;-81
2023/06/26 10:41:24;;;;;;;8.93;2.13;;;23.90;98.50;;;;;;5003370;28;20138;-81
2023/06/26 10:43:51;;;;;;;8.95;2.00;;;24.10;98.60;;;;;;5005014;28;20072;-82
2023/06/26 10:46:18;;;;;;;10.07;2.00;;;23.60;98.30;;;;;;4987546;28;20474;-80
2023/06/26 10:48:58;;;;;;;5.88;1.60;;;23.40;98.40;;;;;;4986702;28;20077;-81
2023/06/26 10:51:24;;;;;;;6.30;1.58;;;23.30;97.90;;;;;;5005008;28;20038;-81
2023/06/26 10:53:57;;;;;;;6.47;1.73;;;23.40;97.20;;;;;;5001962;28;20038;-80
2023/06/26 10:56:45;;;;;;;14.45;2.25;;;23.60;98.30;;;;;;5001821;28;20045;-79
2023/06/26 10:59:17;;;;;;;7.88;1.55;;;23.80;97.70;;;;;;4984015;28;20524;-81
2023/06/26 11:01:45;;;;;;;6.25;1.40;;;23.90;97.50;;;;;;5003116;28;20062;-78
2023/06/26 11:04:10;;;;;;;7.97;1.77;;;24.00;97.70;;;;;;5004539;28;20050;-80
2023/06/26 11:06:41;;;;;;;9.48;1.33;;;24.00;96.90;;;;;;5004873;28;20120;-81
2023/06/26 11:09:14;;;;;;;8.63;1.40;;;24.00;97.40;;;;;;4984106;28;20406;-80
2023/06/26 11:11:52;;;;;;;5.57;1.02;;;23.40;97.10;;;;;;4983735;28;20081;-80
2023/06/26 11:14:22;;;;;;;7.97;1.98;;;23.60;96.50;;;;;;4983677;28;20077;-82
2023/06/26 11:16:49;;;;;;;8.20;1.30;;;24.00;96.90;;;;;;5001860;28;20050;-81
2023/06/26 11:19:16;;;;;;;8.18;1.40;;;24.00;97.20;;;;;;5004383;28;20069;-81
2023/06/26 11:21:42;;;;;;;10.02;1.40;;;24.20;97.00;;;;;;5004637;28;20037;-79
2023/06/26 11:24:08;;;;;;;4.82;1.25;;;23.80;95.50;;;;;;4984654;28;20869;-78
2023/06/26 11:26:44;;;;;;;8.05;1.13;;;23.70;96.50;;;;;;5000930;28;20170;-80
2023/06/26 11:29:11;;;;;;;6.20;1.00;;;24.00;96.40;;;;;;5002627;28;20144;-81
2023/06/26 11:31:38;;;;;;;12.50;1.75;;;24.10;96.30;;;;;;5004339;28;20100;-81
2023/06/26 11:34:11;;;;;;;5.03;1.05;;;24.00;96.20;;;;;;4986477;28;20079;-80
2023/06/26 11:36:37;;;;;;;6.43;1.08;;;23.80;96.00;;;;;;4983621;28;20070;-81
2023/06/26 11:39:07;;;;;;;10.45;1.65;;;23.70;96.00;;;;;;4983690;28;20062;-81
2023/06/26 11:41:37;;;;;;;6.70;1.00;;;23.40;96.00;;;;;;5003506;28;20050;-79
2023/06/26 11:44:04;;;;;;;9.75;1.52;;;23.80;95.60;;;;;;4986551;28;20054;-81
2023/06/26 11:46:30;;;;;;;6.80;1.27;;;23.50;95.00;;;;;;4978338;28;20047;-81
2023/06/26 11:48:56;;;;;;;3.38;1.00;;;23.40;95.50;;;;;;4986888;28;20057;-80
2023/06/26 11:51:23;;;;;;;5.15;1.40;;;23.60;95.80;;;;;;4986377;28;20045;-79
2023/06/26 11:53:49;;;;;;;4.03;1.20;;;23.50;95.10;;;;;;4967147;28;20042;-78
2023/06/26 11:56:15;;;;;;;5.10;1.60;;;23.00;95.00;;;;;;4983145;28;20045;-80
2023/06/26 11:59:01;;;;;;;6.50;1.38;;;23.10;95.30;;;;;;4984487;28;20056;-79
2023/06/26 12:01:40;;;;;;;13.05;1.40;;;23.40;95.40;;;;;;4985877;28;20042;-78
2023/06/26 12:04:08;;;;;;;12.77;1.52;;;23.60;95.80;;;;;;5004751;28;20045;-81
2023/06/26 12:06:35;;;;;;;7.20;1.48;;;23.50;95.10;;;;;;4985975;28;20056;-82
2023/06/26 12:09:06;;;;;;;4.93;1.20;;;23.50;95.40;;;;;;4982984;28;20056;-80
2023/06/26 12:11:32;;;;;;;7.82;1.55;;;23.10;95.20;;;;;;4982925;28;20122;-81
2023/06/26 12:13:59;;;;;;;7.57;1.80;;;23.50;95.70;;;;;;5002556;28;20050;-81
2023/06/26 12:16:25;;;;;;;20.35;2.47;;;23.40;95.30;;;;;;5003360;28;20500;-78
2023/06/26 12:18:51;;;;;;;9.05;1.20;;;23.50;95.60;;;;;;5003102;28;20060;-81
2023/06/26 12:21:40;;;;;;;11.23;1.90;;;23.30;95.40;;;;;;4982308;28;20042;-78
2023/06/26 12:24:07;;;;;;;9.48;1.80;;;23.40;96.00;;;;;;4984088;28;20054;-81
2023/06/26 12:26:33;;;;;;;11.07;1.65;;;23.70;95.90;;;;;;5003091;28;20489;-81
2023/06/26 12:29:03;;;;;;;6.07;1.52;;;23.90;95.30;;;;;;5003197;28;20136;-79
2023/06/26 12:31:29;;;;;;;6.82;1.50;;;23.30;94.40;;;;;;5000105;28;20181;-78
2023/06/26 12:33:55;;;;;;;7.75;1.33;;;23.30;95.20;;;;;;4999887;28;20050;-78
2023/06/26 12:36:20;;;;;;;9.07;1.65;;;23.50;95.30;;;;;;4983727;28;20054;-80
2023/06/26 12:38:48;;;;;;;7.22;1.88;;;23.70;95.00;;;;;;5003141;28;20034;-82
2023/06/26 12:41:14;;;;;;;6.90;1.15;;;23.60;95.20;;;;;;4984877;28;20046;-80